Time;durP1;ratioP1;P1;durP2;ratioP2;P2;SDS_P1;SDS_P2;PMS_P1;PMS_P2;Temp;Humidity;BMP_temperature;BMP_pressure;BME280_temperature;BME280_humidity;BME280_pressure;Samples;Min_cycle;Max_cycle;Signal;HPM_P1;HPM_P2
2022/07/21 00:01:35;;;;;;;4.77;1.40;;;;;;;24.13;45.26;99028.44;6106810;23;20610;-89
2022/07/21 00:04:05;;;;;;;3.83;0.50;;;;;;;24.06;45.62;99027.41;6119762;23;20213;-89
2022/07/21 00:06:33;;;;;;;2.57;0.70;;;;;;;23.99;46.31;99024.56;6156600;23;20245;-89
2022/07/21 00:09:20;;;;;;;1.13;0.60;;;;;;;24.13;45.96;99023.94;6156936;23;20163;-89
2022/07/21 00:11:49;;;;;;;8.63;1.20;;;;;;;24.22;45.25;99028.25;6156457;23;20167;-89
2022/07/21 00:14:36;;;;;;;1.53;0.63;;;;;;;24.17;45.26;99027.09;6131539;23;20186;-89
2022/07/21 00:17:03;;;;;;;2.07;1.10;;;;;;;24.05;45.30;99023.06;6115055;23;20151;-89
2022/07/21 00:19:30;;;;;;;1.73;0.70;;;;;;;24.03;46.27;99020.53;6156471;23;20471;-88
2022/07/21 00:21:56;;;;;;;1.47;0.53;;;;;;;23.95;46.11;99027.75;6155807;23;20226;-89
2022/07/21 00:24:22;;;;;;;1.37;0.87;;;;;;;23.92;46.13;99025.41;6156171;23;20201;-89
2022/07/21 00:26:49;;;;;;;3.87;1.03;;;;;;;23.91;46.62;99023.72;6155590;23;20213;-88
2022/07/21 00:29:16;;;;;;;1.13;0.70;;;;;;;23.90;46.29;99019.41;6155873;23;20155;-89
2022/07/21 00:31:44;;;;;;;1.87;0.73;;;;;;;23.87;45.92;99017.03;6156367;23;20152;-89
2022/07/21 00:34:11;;;;;;;4.83;0.97;;;;;;;23.84;45.79;99021.75;6156000;23;20579;-88
2022/07/21 00:36:38;;;;;;;0.87;0.50;;;;;;;23.77;46.05;99019.88;6155741;23;20218;-89
2022/07/21 00:39:05;;;;;;;1.90;0.97;;;;;;;23.78;46.04;99019.72;6156347;23;20147;-89
2022/07/21 00:41:37;;;;;;;4.90;0.90;;;;;;;23.74;46.24;99018.38;6155903;23;20151;-89
2022/07/21 00:44:04;;;;;;;1.87;0.67;;;;;;;23.69;46.45;99018.03;6156387;23;20140;-88
2022/07/21 00:46:34;;;;;;;1.60;0.90;;;;;;;23.74;46.30;99014.88;6155880;23;20175;-88
2022/07/21 00:49:19;;;;;;;1.00;0.80;;;;;;;23.71;46.66;99013.38;6130262;23;20649;-88
2022/07/21 00:51:51;;;;;;;2.43;1.00;;;;;;;23.71;46.47;99007.19;6129900;23;20159;-88
2022/07/21 00:54:19;;;;;;;3.07;0.80;;;;;;;23.61;46.70;99011.84;6130222;23;20167;-88
2022/07/21 00:56:46;;;;;;;3.43;0.60;;;;;;;23.56;46.77;99014.16;6130139;23;20178;-89
2022/07/21 00:59:14;;;;;;;1.33;0.83;;;;;;;23.46;47.33;99010.81;6156507;23;20571;-88
2022/07/21 01:01:40;;;;;;;0.90;0.47;;;;;;;23.38;47.44;99011.63;6155779;23;20147;-88
2022/07/21 01:04:07;;;;;;;1.80;0.70;;;;;;;23.35;47.39;99017.28;6155714;23;20158;-88
2022/07/21 01:06:34;;;;;;;1.10;0.60;;;;;;;23.25;47.89;99012.09;6155801;23;20179;-88
2022/07/21 01:09:01;;;;;;;2.07;0.83;;;;;;;23.29;47.36;99003.75;6130101;23;20486;-89
2022/07/21 01:11:29;;;;;;;3.33;0.87;;;;;;;23.30;48.23;99011.59;6156155;23;20147;-89
2022/07/21 01:13:55;;;;;;;1.43;0.90;;;;;;;23.27;48.54;99009.22;6130038;23;20186;-89
2022/07/21 01:16:22;;;;;;;3.33;1.20;;;;;;;23.27;48.19;99003.88;6155629;23;20625;-88
2022/07/21 01:18:53;;;;;;;2.47;0.90;;;;;;;23.25;48.03;99001.38;6156154;23;20175;-89
2022/07/21 01:21:38;;;;;;;1.73;0.93;;;;;;;23.16;48.63;99006.91;6156162;23;20143;-89
2022/07/21 01:24:06;;;;;;;0.80;0.53;;;;;;;23.09;48.84;98995.16;6130032;23;20194;-89
2022/07/21 01:26:45;;;;;;;1.53;0.80;;;;;;;23.14;48.92;99000.84;6129927;23;20557;-89
2022/07/21 01:29:12;;;;;;;2.23;0.80;;;;;;;23.03;49.11;99001.16;6156095;23;20145;-89
2022/07/21 01:31:41;;;;;;;2.50;0.90;;;;;;;22.91;49.86;99000.63;6156113;23;20559;-88
2022/07/21 01:34:09;;;;;;;1.17;0.70;;;;;;;22.92;49.80;98996.13;6155676;23;20214;-89
2022/07/21 01:36:36;;;;;;;3.17;0.77;;;;;;;22.92;49.70;98999.63;6129989;23;20209;-88
2022/07/21 01:41:50;;;;;;;6.10;0.80;;;;;;;22.85;50.29;99000.44;6158111;23;20586;-88
2022/07/21 01:44:17;;;;;;;1.63;0.90;;;;;;;22.83;50.52;98995.25;6157698;23;20147;-88
2022/07/21 01:46:46;;;;;;;1.23;0.60;;;;;;;22.87;50.28;99001.13;6131978;23;20187;-89
2022/07/21 01:49:16;;;;;;;1.77;0.73;;;;;;;22.79;50.29;98998.41;6132934;23;20162;-88
2022/07/21 01:51:43;;;;;;;2.37;1.13;;;;;;;22.64;50.67;98998.19;6157887;23;20148;-89
2022/07/21 01:54:11;;;;;;;1.73;0.80;;;;;;;22.56;51.07;98998.91;6157462;23;20167;-88
2022/07/21 01:56:39;;;;;;;1.50;0.73;;;;;;;22.41;51.47;98989.84;6157865;23;20147;-89
2022/07/21 01:59:06;;;;;;;1.90;0.77;;;;;;;22.32;52.02;98995.31;6157557;23;20247;-89
2022/07/21 02:01:34;;;;;;;1.77;0.70;;;;;;;22.39;51.49;98997.19;6157494;23;20575;-88
2022/07/21 02:04:04;;;;;;;1.13;0.73;;;;;;;22.42;51.16;98991.53;6157461;23;20151;-89
2022/07/21 02:06:33;;;;;;;1.53;0.80;;;;;;;22.40;51.04;98993.53;6157598;23;20201;-88
2022/07/21 02:09:00;;;;;;;1.47;0.60;;;;;;;22.37;51.23;98993.84;6157406;23;20154;-88
2022/07/21 02:11:27;;;;;;;2.37;1.10;;;;;;;22.38;50.96;98990.16;6131687;23;20151;-88
2022/07/21 02:13:53;;;;;;;1.80;0.97;;;;;;;22.42;50.27;98990.69;6131644;23;20155;-89
2022/07/21 02:16:20;;;;;;;1.57;0.80;;;;;;;22.48;49.54;98992.72;6157497;23;20143;-89
2022/07/21 02:18:47;;;;;;;2.03;1.00;;;;;;;22.34;49.89;98991.47;6157226;23;20532;-88
2022/07/21 02:21:14;;;;;;;2.17;0.97;;;;;;;22.17;50.87;98989.69;6157689;23;20227;-88
2022/07/21 02:23:41;;;;;;;3.00;0.70;;;;;;;22.21;50.49;98988.41;6157276;23;20151;-88
2022/07/21 02:26:08;;;;;;;2.67;0.80;;;;;;;22.16;51.09;98990.69;6157185;23;20249;-88
2022/07/21 02:28:35;;;;;;;0.70;0.50;;;;;;;22.23;50.50;98981.06;6157934;23;20586;-88
2022/07/21 02:31:02;;;;;;;2.43;1.30;;;;;;;22.19;50.26;98981.53;6157086;23;20147;-88
2022/07/21 02:33:29;;;;;;;1.57;0.83;;;;;;;22.25;49.86;98978.25;6157516;23;20580;-88
2022/07/21 02:35:56;;;;;;;1.23;0.77;;;;;;;22.17;50.17;98987.03;6158266;23;20147;-89
2022/07/21 02:38:23;;;;;;;3.40;1.07;;;;;;;22.13;49.91;98976.81;6157202;23;20214;-88
2022/07/21 02:40:49;;;;;;;2.00;0.90;;;;;;;22.16;49.73;98979.19;6158175;23;20558;-89
2022/07/21 02:43:16;;;;;;;1.47;0.77;;;;;;;22.13;49.76;98985.66;6131208;23;20522;-88
2022/07/21 02:45:44;;;;;;;4.13;0.90;;;;;;;22.07;49.97;98975.59;6157726;23;20246;-88
2022/07/21 02:48:12;;;;;;;2.50;0.77;;;;;;;22.02;50.09;98973.41;6157520;23;20147;-88
2022/07/21 02:50:43;;;;;;;4.17;1.20;;;;;;;22.06;49.66;98971.28;6157673;23;20222;-89
2022/07/21 02:53:19;;;;;;;1.20;0.77;;;;;;;22.12;49.37;98972.50;6157007;23;20221;-88
2022/07/21 02:55:47;;;;;;;2.07;0.90;;;;;;;22.08;49.02;98974.63;6157066;23;20138;-88
2022/07/21 02:58:27;;;;;;;1.80;0.97;;;;;;;22.06;49.20;98973.97;6156708;23;20213;-88
2022/07/21 03:00:58;;;;;;;1.60;0.80;;;;;;;22.02;49.30;98977.91;6157689;23;20143;-88
2022/07/21 03:03:28;;;;;;;3.60;1.80;;;;;;;21.99;50.17;98975.56;6157668;23;20138;-88
2022/07/21 03:05:56;;;;;;;2.30;1.33;;;;;;;22.04;49.77;98975.91;6157209;23;20199;-88
2022/07/21 03:08:24;;;;;;;3.27;1.37;;;;;;;21.98;49.65;98977.41;6156694;23;20483;-88
2022/07/21 03:10:51;;;;;;;2.20;1.17;;;;;;;22.01;49.82;98970.91;6131177;23;20159;-88
2022/07/21 03:13:17;;;;;;;2.03;1.10;;;;;;;22.02;49.65;98969.91;6131071;23;20166;-88
2022/07/21 03:15:44;;;;;;;4.00;1.23;;;;;;;21.96;50.17;98973.19;6156847;23;20143;-88
2022/07/21 03:18:11;;;;;;;2.63;1.40;;;;;;;22.02;49.52;98976.09;6156712;23;20174;-88
2022/07/21 03:20:40;;;;;;;1.87;0.97;;;;;;;21.94;49.76;98975.19;6157181;23;20151;-88
2022/07/21 03:23:07;;;;;;;2.33;1.20;;;;;;;21.78;50.91;98965.19;6157424;23;20151;-88
2022/07/21 03:25:34;;;;;;;1.63;1.17;;;;;;;21.82;51.32;98969.25;6156979;23;20151;-88
2022/07/21 03:28:01;;;;;;;2.10;1.03;;;;;;;21.75;51.39;98970.84;6130975;23;20303;-88
2022/07/21 03:30:28;;;;;;;3.20;1.60;;;;;;;21.65;51.60;98971.91;6130862;23;20217;-88
2022/07/21 03:32:55;;;;;;;1.53;1.03;;;;;;;21.60;51.50;98971.56;6157298;23;20151;-88
2022/07/21 03:35:23;;;;;;;2.70;1.40;;;;;;;21.69;51.33;98970.63;6131219;23;20538;-89
2022/07/21 03:37:55;;;;;;;2.27;1.30;;;;;;;21.65;51.37;98963.91;6157238;23;20510;-89
2022/07/21 03:40:24;;;;;;;1.87;1.07;;;;;;;21.77;51.13;98968.03;6156370;23;20238;-89
2022/07/21 03:42:53;;;;;;;3.23;1.27;;;;;;;21.83;51.58;98970.06;6157254;23;20151;-88
2022/07/21 03:45:20;;;;;;;2.50;1.37;;;;;;;21.87;51.36;98974.16;6156429;23;20571;-89
2022/07/21 03:47:47;;;;;;;2.43;1.30;;;;;;;21.93;51.39;98976.19;6156873;23;20560;-89
2022/07/21 03:50:16;;;;;;;2.03;1.30;;;;;;;21.91;51.75;98971.00;6156324;23;20159;-89
2022/07/21 03:52:42;;;;;;;5.23;1.30;;;;;;;21.93;51.11;98973.53;6156759;23;20222;-88
2022/07/21 03:55:09;;;;;;;2.87;1.60;;;;;;;21.83;52.04;98973.56;6130193;23;20492;-89
2022/07/21 03:57:41;;;;;;;3.40;1.20;;;;;;;21.85;52.49;98973.44;6156332;23;20213;-88
2022/07/21 04:00:13;;;;;;;2.83;1.57;;;;;;;21.89;51.67;98973.00;6155791;23;20231;-88
2022/07/21 04:02:42;;;;;;;3.90;1.70;;;;;;;22.03;51.59;98977.78;6156542;23;20163;-88
2022/07/21 04:05:10;;;;;;;3.47;1.50;;;;;;;22.15;52.19;98970.31;6156201;23;20230;-88
2022/07/21 04:07:42;;;;;;;3.93;1.50;;;;;;;22.27;51.52;98961.06;6156167;23;20599;-88
2022/07/21 04:10:13;;;;;;;2.30;1.20;;;;;;;22.36;51.50;98961.94;6154878;23;20154;-88
2022/07/21 04:12:40;;;;;;;2.90;1.50;;;;;;;22.48;52.14;98964.16;6155150;23;20218;-88
2022/07/21 04:15:08;;;;;;;2.50;1.40;;;;;;;22.52;52.83;98968.19;6155250;23;20194;-88
2022/07/21 04:17:37;;;;;;;2.07;1.13;;;;;;;22.66;51.78;98960.59;6156358;23;20147;-88
2022/07/21 04:20:05;;;;;;;3.30;1.70;;;;;;;22.74;50.62;98974.00;6130676;23;20163;-88
2022/07/21 04:22:32;;;;;;;4.07;1.80;;;;;;;22.85;50.53;98968.38;6130244;23;20163;-88
2022/07/21 04:24:59;;;;;;;4.03;1.60;;;;;;;22.90;50.94;98969.56;6156113;23;20189;-88
2022/07/21 04:27:27;;;;;;;3.27;1.20;;;;;;;22.97;51.56;98962.56;6156162;23;20172;-89
2022/07/21 04:29:54;;;;;;;3.90;1.43;;;;;;;23.04;51.63;98960.03;6130780;23;20151;-89
2022/07/21 04:32:26;;;;;;;2.83;1.80;;;;;;;23.11;51.63;98961.09;6130181;23;20597;-89
2022/07/21 04:34:53;;;;;;;2.63;1.50;;;;;;;23.14;51.55;98960.72;6130308;23;20468;-89
2022/07/21 04:37:20;;;;;;;3.13;1.50;;;;;;;23.20;51.77;98965.44;6156088;23;20182;-89
2022/07/21 04:39:47;;;;;;;1.90;1.17;;;;;;;23.25;51.11;98968.44;6156087;23;20151;-89
2022/07/21 04:42:14;;;;;;;2.53;1.37;;;;;;;23.45;50.69;98969.03;6156133;23;20226;-89
2022/07/21 04:44:41;;;;;;;3.27;1.67;;;;;;;23.47;50.02;98967.84;6130246;23;20154;-89
2022/07/21 04:47:07;;;;;;;2.97;1.70;;;;;;;23.53;49.75;98961.81;6130190;23;20265;-89
2022/07/21 04:49:34;;;;;;;11.10;1.67;;;;;;;23.50;50.18;98966.69;6155804;23;21014;-89
2022/07/21 04:52:01;;;;;;;1.87;1.13;;;;;;;23.60;50.59;98962.00;6130315;23;20182;-89
2022/07/21 04:54:27;;;;;;;2.17;1.37;;;;;;;23.73;49.69;98973.88;6155526;23;20190;-89
2022/07/21 04:56:55;;;;;;;2.67;1.60;;;;;;;23.81;48.16;98965.84;6156254;23;20582;-89
2022/07/21 04:59:22;;;;;;;4.27;1.57;;;;;;;23.89;48.55;98972.19;6155669;23;20146;-89
2022/07/21 05:01:49;;;;;;;3.47;1.10;;;;;;;23.99;47.59;98971.00;6155800;23;20151;-89
2022/07/21 05:04:16;;;;;;;1.93;1.27;;;;;;;24.33;46.75;98973.50;6129833;23;20541;-88
2022/07/21 05:06:42;;;;;;;5.03;1.60;;;;;;;24.45;46.94;98972.09;6155162;23;20278;-89
2022/07/21 05:09:12;;;;;;;2.43;1.10;;;;;;;24.38;45.98;98973.81;6129889;23;20159;-89
2022/07/21 05:11:39;;;;;;;3.03;1.40;;;;;;;24.43;46.72;98969.59;6130325;23;20582;-89
2022/07/21 05:14:07;;;;;;;5.63;1.80;;;;;;;24.62;46.70;98959.50;6130029;23;20182;-89
2022/07/21 05:16:37;;;;;;;2.30;1.07;;;;;;;24.83;46.18;98963.28;6155744;23;20185;-89
2022/07/21 05:19:21;;;;;;;2.23;1.40;;;;;;;24.97;45.90;98967.88;6156174;23;20147;-90
2022/07/21 05:21:49;;;;;;;1.40;1.00;;;;;;;25.12;45.52;98976.03;6128359;23;20167;-94
2022/07/21 05:24:16;;;;;;;2.03;1.03;;;;;;;25.25;44.75;98972.78;6130774;23;20150;-95
2022/07/21 05:26:42;;;;;;;1.83;0.97;;;;;;;25.40;44.21;98970.97;6130959;23;20189;-92
2022/07/21 05:29:12;;;;;;;2.43;1.30;;;;;;;25.53;44.85;98971.25;6129849;23;20159;-93
2022/07/21 05:31:46;;;;;;;3.83;1.13;;;;;;;25.65;43.25;98975.22;6130859;23;20155;-93
2022/07/21 05:34:14;;;;;;;3.40;1.10;;;;;;;25.86;42.98;98971.84;6131223;23;20238;-92
2022/07/21 05:36:45;;;;;;;2.50;1.20;;;;;;;26.08;41.25;98977.16;6130483;23;20151;-92
2022/07/21 05:39:12;;;;;;;2.57;1.33;;;;;;;26.16;41.71;98963.69;6129016;23;20166;-93
2022/07/21 05:41:49;;;;;;;;;;;;;;;;;;;;;
2022/07/21 05:44:16;;;;;;;2.27;1.10;;;;;;;26.53;41.44;98960.06;6156398;23;20206;-93
2022/07/21 05:46:43;;;;;;;2.80;1.27;;;;;;;26.56;41.11;98965.09;6156111;23;20718;-93
2022/07/21 05:49:10;;;;;;;3.17;1.40;;;;;;;26.64;40.84;98966.84;6130335;23;20226;-92
2022/07/21 05:51:37;;;;;;;3.00;1.27;;;;;;;26.81;41.40;98968.31;6130310;23;20162;-92
2022/07/21 05:54:03;;;;;;;2.50;1.20;;;;;;;26.96;40.43;98961.09;6156187;23;20198;-92
2022/07/21 05:56:30;;;;;;;1.92;1.20;;;;;;;27.13;41.00;98957.13;6156017;23;20159;-92
2022/07/21 05:58:57;;;;;;;2.30;0.95;;;;;;;27.36;40.76;98957.78;6130333;23;20238;-92
2022/07/21 06:01:24;;;;;;;7.03;1.40;;;;;;;27.56;39.60;98960.72;6130512;23;20493;-93
2022/07/21 06:03:58;;;;;;;2.50;1.13;;;;;;;27.55;39.11;98956.34;6130168;23;20191;-93
2022/07/21 06:06:24;;;;;;;3.90;1.50;;;;;;;27.52;38.64;98959.44;6130003;23;20183;-92
2022/07/21 06:08:51;;;;;;;3.20;1.25;;;;;;;27.38;38.32;98955.72;6129812;23;20221;-92
2022/07/21 06:11:20;;;;;;;3.00;1.20;;;;;;;27.50;37.96;98952.56;6130221;23;20152;-93
2022/07/21 06:13:48;;;;;;;2.72;1.15;;;;;;;27.52;37.64;98953.19;6130264;23;20159;-92
2022/07/21 06:16:18;;;;;;;2.20;1.20;;;;;;;27.88;37.45;98953.97;6130069;23;20525;-91
2022/07/21 06:18:44;;;;;;;2.72;1.00;;;;;;;28.04;36.36;98953.69;6130413;23;20197;-90
2022/07/21 06:21:15;;;;;;;2.60;1.23;;;;;;;28.10;36.51;98950.22;6155900;23;20175;-92
2022/07/21 06:23:42;;;;;;;1.65;0.90;;;;;;;28.27;37.02;98950.75;6130636;23;20504;-91
2022/07/21 06:26:08;;;;;;;3.03;1.30;;;;;;;28.39;36.10;98950.00;6131373;23;20249;-92
2022/07/21 06:29:26;;;;;;;;;;;;;;;;;;;;;
2022/07/21 06:31:53;;;;;;;3.50;1.15;;;;;;;29.06;35.12;98939.31;6038614;23;20245;-91
2022/07/21 06:34:22;;;;;;;3.92;1.10;;;;;;;29.29;34.70;98938.16;6139470;23;20277;-91
2022/07/21 06:36:52;;;;;;;5.30;1.48;;;;;;;29.51;34.49;98936.94;6156973;23;20173;-90
2022/07/21 06:39:18;;;;;;;4.03;1.35;;;;;;;29.69;34.61;98938.00;6157443;23;20147;-92
2022/07/21 06:41:48;;;;;;;3.53;1.20;;;;;;;29.94;33.56;98937.41;6131604;23;20163;-90
2022/07/21 06:44:14;;;;;;;2.75;1.02;;;;;;;29.93;33.95;98933.06;6132102;23;20166;-92
2022/07/21 06:46:41;;;;;;;2.08;1.20;;;;;;;29.95;34.00;98925.56;6131455;23;20273;-91
2022/07/21 06:49:28;;;;;;;2.63;1.20;;;;;;;30.26;33.91;98931.16;6131442;23;20234;-93
2022/07/21 06:52:34;;;;;;;2.08;1.08;;;;;;;30.38;33.10;98927.59;6131167;23;20155;-91
2022/07/21 06:56:02;;;;;;;2.80;1.02;;;;;;;30.77;32.91;98923.09;6102186;23;20163;-91
2022/07/21 06:58:30;;;;;;;3.83;1.10;;;;;;;31.03;32.24;98920.28;6127020;23;20570;-91
2022/07/21 07:01:16;;;;;;;3.00;1.15;;;;;;;31.19;33.40;98929.78;6102218;23;20164;-93
2022/07/21 07:03:43;;;;;;;3.30;0.80;;;;;;;31.32;32.32;98921.56;6126830;23;20319;-91
2022/07/21 07:06:14;;;;;;;2.53;1.05;;;;;;;31.49;31.37;98923.59;6127466;23;20192;-92
2022/07/21 07:08:46;;;;;;;2.53;1.15;;;;;;;31.72;32.41;98919.44;6127706;23;20207;-93
2022/07/21 07:12:10;;;;;;;4.95;2.00;;;;;;;31.98;32.16;98905.66;6102003;23;20152;-93
2022/07/21 07:14:36;;;;;;;6.35;1.45;;;;;;;32.00;31.81;98912.53;6084566;23;20163;-92
2022/07/21 07:17:21;;;;;;;3.90;1.35;;;;;;;32.11;30.55;98919.94;6102159;23;20148;-93
2022/07/21 07:19:54;;;;;;;2.08;1.08;;;;;;;32.00;30.08;98917.13;6102040;23;20159;-92
2022/07/21 07:22:47;;;;;;;2.42;1.00;;;;;;;32.17;29.85;98910.94;6127572;23;20148;-94
2022/07/21 07:25:25;;;;;;;3.15;0.93;;;;;;;32.21;29.55;98908.56;6113945;23;20171;-92
2022/07/21 07:28:02;;;;;;;2.63;1.10;;;;;;;32.58;29.50;98899.44;6102336;23;20160;-92
2022/07/21 07:30:32;;;;;;;5.00;1.83;;;;;;;32.56;29.66;98901.53;6101542;23;20159;-92
2022/07/21 07:32:58;;;;;;;4.15;1.30;;;;;;;32.84;29.87;98898.25;6126193;23;20155;-91
2022/07/21 07:36:00;;;;;;;5.22;1.27;;;;;;;33.03;30.43;98894.44;6127297;23;20156;-92
2022/07/21 07:39:14;;;;;;;3.25;1.45;;;;;;;33.16;29.54;98897.00;6126701;23;20144;-92
2022/07/21 07:41:44;;;;;;;2.70;1.08;;;;;;;33.31;27.87;98889.25;6100905;23;20160;-90
2022/07/21 07:44:15;;;;;;;5.15;0.95;;;;;;;33.57;28.27;98892.66;6101606;23;20148;-91
2022/07/21 07:46:47;;;;;;;4.07;1.85;;;;;;;33.69;27.98;98893.50;6126856;23;20178;-90
2022/07/21 07:49:15;;;;;;;3.38;1.35;;;;;;;33.93;29.53;98893.28;6100854;23;20170;-92
2022/07/21 07:51:42;;;;;;;2.60;1.23;;;;;;;34.19;27.83;98893.91;6126017;23;20538;-92
2022/07/21 07:54:09;;;;;;;2.80;0.90;;;;;;;34.29;26.54;98894.94;6122076;23;20730;-92
2022/07/21 07:57:16;;;;;;;;;;;;;;;;;;;;;
2022/07/21 07:59:48;;;;;;;1.95;1.13;;;;;;;34.57;27.74;98884.16;6120115;23;20246;-92
2022/07/21 08:02:15;;;;;;;1.85;0.82;;;;;;;34.67;26.99;98888.16;6130882;23;20151;-93
2022/07/21 08:04:48;;;;;;;2.58;1.05;;;;;;;34.79;26.76;98886.22;6130561;23;20234;-91
2022/07/21 08:07:24;;;;;;;2.17;1.10;;;;;;;35.06;26.06;98888.13;6156903;23;20237;-91
2022/07/21 08:09:50;;;;;;;1.92;0.90;;;;;;;35.25;26.23;98883.31;6131176;23;20524;-92
2022/07/21 08:12:27;;;;;;;1.70;1.05;;;;;;;35.15;26.64;98885.84;6130743;23;20159;-93
2022/07/21 08:14:52;;;;;;;1.70;0.90;;;;;;;35.30;26.40;98882.59;6130747;23;20154;-90
2022/07/21 08:17:22;;;;;;;1.10;0.65;;;;;;;35.55;25.77;98883.88;6156502;23;20151;-92
2022/07/21 08:19:49;;;;;;;2.78;1.10;;;;;;;35.45;25.79;98880.97;6130844;23;20155;-90
2022/07/21 08:22:36;;;;;;;6.20;0.75;;;;;;;35.71;25.13;98874.88;6130501;23;20177;-92
2022/07/21 08:25:23;;;;;;;2.50;1.10;;;;;;;35.86;25.63;98881.63;6156451;23;20195;-91
2022/07/21 08:28:40;;;;;;;;;;;;;;;;;;;;;
2022/07/21 08:34:23;;;;;;;1.63;0.80;;;;;;;36.05;24.56;98875.69;6136197;23;20161;-90
2022/07/21 08:37:37;;;;;;;2.58;1.52;;;;;;;36.17;24.99;98875.56;6154946;23;20174;-92
2022/07/21 08:40:37;;;;;;;2.30;1.30;;;;;;;36.33;25.25;98871.97;6038697;23;20575;-93
2022/07/21 08:46:52;;;;;;;1.67;0.88;;;;;;;36.37;23.73;98864.94;5905985;23;20198;-91
2022/07/21 08:49:46;;;;;;;1.98;0.90;;;;;;;36.60;24.83;98859.25;5953810;23;20193;-94
2022/07/21 08:52:14;;;;;;;2.22;0.88;;;;;;;36.63;23.35;98849.72;5994802;23;20582;-94
2022/07/21 09:00:26;;;;;;;5.70;0.85;;;;;;;36.59;22.60;98848.56;6038595;23;20198;-94
2022/07/21 09:03:24;;;;;;;1.92;0.70;;;;;;;36.76;23.19;98843.88;6014158;23;20260;-92
2022/07/21 09:12:54;;;;;;;2.22;1.00;;;;;;;37.37;22.81;98831.66;6083010;23;20174;-93
2022/07/21 09:15:40;;;;;;;1.67;0.65;;;;;;;37.41;23.26;98832.81;6106297;23;20162;-93
2022/07/21 09:18:16;;;;;;;2.90;1.20;;;;;;;37.47;22.09;98831.78;6106066;23;20158;-92
2022/07/21 09:21:16;;;;;;;1.50;0.80;;;;;;;37.75;22.96;98825.94;6130521;23;20147;-93
2022/07/21 09:23:52;;;;;;;2.17;0.90;;;;;;;37.68;22.68;98830.84;6123303;23;20154;-91
2022/07/21 09:26:23;;;;;;;2.08;0.90;;;;;;;37.78;22.53;98828.16;6130190;23;20174;-92
2022/07/21 09:29:12;;;;;;;1.40;0.75;;;;;;;37.96;22.10;98816.81;6130142;23;20163;-93
2022/07/21 09:31:38;;;;;;;1.67;1.08;;;;;;;38.13;21.54;98822.13;6130892;23;20226;-93
2022/07/21 09:34:21;;;;;;;1.77;0.90;;;;;;;38.17;22.47;98817.75;6130607;23;20621;-94
2022/07/21 09:36:57;;;;;;;2.08;0.88;;;;;;;37.79;22.60;98821.59;6118918;23;20155;-93
2022/07/21 09:40:10;;;;;;;1.85;1.05;;;;;;;37.98;21.86;98809.16;6130115;23;20155;-94
2022/07/21 09:43:04;;;;;;;1.75;0.80;;;;;;;38.21;22.78;98813.38;6130371;23;20151;-92
2022/07/21 09:45:58;;;;;;;2.60;1.60;;;;;;;38.38;21.63;98808.56;6156071;23;20617;-93
2022/07/21 09:48:41;;;;;;;1.52;0.77;;;;;;;38.53;22.87;98807.78;6130385;23;20261;-93
2022/07/21 09:51:30;;;;;;;1.65;0.82;;;;;;;38.38;21.79;98811.28;6129997;23;20512;-91
2022/07/21 09:54:11;;;;;;;2.63;0.90;;;;;;;38.38;21.71;98802.25;6155457;23;20595;-93
2022/07/21 09:56:43;;;;;;;2.30;1.02;;;;;;;38.43;22.02;98805.84;6129996;23;20209;-94
2022/07/21 09:59:13;;;;;;;1.50;0.80;;;;;;;38.78;21.15;98802.41;6131268;23;20147;-90
2022/07/21 10:02:05;;;;;;;1.60;0.80;;;;;;;38.89;22.16;98800.50;6157886;23;20234;-93
2022/07/21 10:04:40;;;;;;;1.50;0.80;;;;;;;38.98;22.38;98799.69;6132581;23;20159;-94
2022/07/21 10:07:07;;;;;;;3.17;1.23;;;;;;;39.20;21.90;98800.31;6131972;23;20189;-92
2022/07/21 10:09:34;;;;;;;1.95;0.90;;;;;;;39.49;21.76;98789.59;6157728;23;20452;-93
2022/07/21 10:12:29;;;;;;;2.08;0.80;;;;;;;39.86;21.91;98795.56;6157867;23;20209;-93
2022/07/21 10:16:10;;;;;;;1.13;0.60;;;;;;;39.60;21.35;98787.66;6155090;23;20170;-93
2022/07/21 10:18:37;;;;;;;1.58;0.80;;;;;;;39.88;21.54;98789.81;6073257;23;20166;-93
2022/07/21 10:21:32;;;;;;;1.13;0.63;;;;;;;40.12;20.48;98785.38;6132183;23;20151;-92
2022/07/21 10:23:57;;;;;;;2.17;1.10;;;;;;;39.91;21.43;98786.53;6158098;23;20135;-92
2022/07/21 10:26:26;;;;;;;2.65;0.90;;;;;;;39.81;20.80;98773.63;6131853;23;20189;-92
2022/07/21 10:28:51;;;;;;;1.45;0.70;;;;;;;39.63;20.92;98779.72;6132364;23;20237;-92
2022/07/21 10:31:22;;;;;;;6.07;0.90;;;;;;;40.14;20.91;98768.63;6132251;23;20187;-92
2022/07/21 10:33:48;;;;;;;2.97;0.90;;;;;;;40.01;20.07;98766.44;6131758;23;20165;-92
2022/07/21 10:36:26;;;;;;;1.60;0.80;;;;;;;39.91;20.69;98762.59;6129914;23;20155;-92
2022/07/21 10:39:14;;;;;;;2.85;1.17;;;;;;;39.89;20.98;98764.81;6155252;23;20151;-93
2022/07/21 10:41:50;;;;;;;1.38;0.85;;;;;;;40.20;20.39;98759.25;6129446;23;20171;-92
2022/07/21 10:44:36;;;;;;;0.93;0.60;;;;;;;40.62;20.99;98753.28;6129664;23;20202;-92
2022/07/21 10:47:10;;;;;;;1.48;0.75;;;;;;;40.88;19.80;98754.75;6154016;23;20179;-92
2022/07/21 10:49:47;;;;;;;2.72;1.10;;;;;;;40.96;19.68;98763.22;6129534;23;20162;-93
2022/07/21 10:52:34;;;;;;;1.80;0.82;;;;;;;40.69;19.57;98745.53;6129978;23;20596;-92
2022/07/21 10:55:28;;;;;;;1.20;0.60;;;;;;;40.92;19.81;98745.69;6155319;23;20186;-92
2022/07/21 10:58:16;;;;;;;2.08;1.05;;;;;;;40.98;19.81;98736.28;6131971;23;20225;-92
2022/07/21 11:00:46;;;;;;;2.92;0.82;;;;;;;40.84;18.85;98735.25;6131567;23;20147;-92
2022/07/21 11:03:38;;;;;;;3.10;1.13;;;;;;;40.76;19.80;98741.38;6157568;23;20147;-92
2022/07/21 11:06:07;;;;;;;2.15;0.90;;;;;;;40.36;20.03;98738.81;6132735;23;20175;-93
2022/07/21 11:08:35;;;;;;;2.38;0.90;;;;;;;40.30;19.85;98740.81;6131566;23;20198;-92
2022/07/21 11:11:12;;;;;;;2.20;0.82;;;;;;;40.31;20.39;98739.69;6157453;23;20170;-92
2022/07/21 11:14:13;;;;;;;1.40;0.85;;;;;;;40.31;19.67;98738.84;6131806;23;20147;-93
2022/07/21 11:16:41;;;;;;;1.75;0.90;;;;;;;40.25;20.12;98729.84;6131569;23;20163;-93
2022/07/21 11:19:31;;;;;;;3.22;0.98;;;;;;;40.25;21.11;98718.88;6131570;23;20194;-91
2022/07/21 11:21:59;;;;;;;1.65;0.90;;;;;;;40.39;20.52;98728.09;6157206;23;20143;-94
2022/07/21 11:24:39;;;;;;;;;;;;;;;;;;;;;
2022/07/21 11:27:11;;;;;;;1.35;0.63;;;;;;;40.65;19.28;98730.75;6157747;23;20258;-92
2022/07/21 11:29:39;;;;;;;5.35;0.80;;;;;;;40.74;18.85;98715.28;6157307;23;20151;-92
2022/07/21 11:32:05;;;;;;;1.50;0.70;;;;;;;40.58;19.23;98710.97;6131355;23;20162;-93
2022/07/21 11:34:38;;;;;;;1.55;0.73;;;;;;;40.89;20.37;98712.44;6131422;23;20214;-92
2022/07/21 11:37:04;;;;;;;2.25;0.82;;;;;;;40.94;17.65;98715.97;6157407;23;20193;-93
2022/07/21 11:39:32;;;;;;;1.70;0.60;;;;;;;41.04;18.23;98710.38;6131611;23;20155;-93
2022/07/21 11:42:11;;;;;;;0.90;0.50;;;;;;;41.15;17.97;98711.09;6157660;23;20589;-93
2022/07/21 11:44:41;;;;;;;1.77;0.80;;;;;;;41.21;18.26;98698.94;6132369;23;20159;-93
2022/07/21 11:47:11;;;;;;;1.50;0.88;;;;;;;41.24;17.98;98701.13;6131275;23;20178;-93
2022/07/21 11:49:36;;;;;;;2.83;0.63;;;;;;;41.45;17.10;98699.84;6131762;23;20163;-92
2022/07/21 11:52:07;;;;;;;1.73;0.80;;;;;;;41.66;17.76;98698.50;6157163;23;20147;-92
2022/07/21 11:54:35;;;;;;;1.08;0.50;;;;;;;41.51;17.38;98695.91;6156902;23;20174;-93
2022/07/21 11:57:04;;;;;;;1.30;0.50;;;;;;;41.81;17.00;98692.00;6131029;23;20214;-92
2022/07/21 11:59:40;;;;;;;1.83;0.93;;;;;;;41.66;16.91;98697.69;6131486;23;20574;-94
2022/07/21 12:02:38;;;;;;;0.82;0.60;;;;;;;41.73;16.75;98689.91;6131218;23;20516;-94
2022/07/21 12:05:06;;;;;;;1.02;0.63;;;;;;;41.69;16.93;98688.84;6156562;23;20151;-91
2022/07/21 12:07:36;;;;;;;0.93;0.60;;;;;;;41.85;17.12;98692.25;6131739;23;20610;-92
2022/07/21 12:10:11;;;;;;;1.33;0.75;;;;;;;41.82;16.86;98679.06;6132323;23;20462;-92
2022/07/21 12:12:56;;;;;;;5.65;0.80;;;;;;;41.81;16.76;98682.94;6156849;23;20150;-94
2022/07/21 12:15:33;;;;;;;1.77;0.75;;;;;;;41.63;17.70;98692.75;6131059;23;20593;-94
2022/07/21 12:18:22;;;;;;;;;;;;;;;;;;;;;
2022/07/21 12:20:48;;;;;;;2.28;1.17;;;;;;;41.53;17.50;98685.44;6156726;23;20210;-92
2022/07/21 12:23:24;;;;;;;2.33;0.60;;;;;;;41.26;17.63;98684.31;6156541;23;20171;-95
2022/07/21 12:25:51;;;;;;;2.45;1.20;;;;;;;41.23;17.59;98680.22;6130721;23;20505;-94
2022/07/21 12:28:19;;;;;;;1.08;0.50;;;;;;;41.08;18.44;98683.13;6131411;23;20155;-93
2022/07/21 12:30:47;;;;;;;2.22;1.08;;;;;;;41.21;18.20;98668.69;6156650;23;20206;-93
2022/07/21 12:33:13;;;;;;;2.67;1.15;;;;;;;41.21;18.60;98659.59;6157101;23;20166;-93